createdAt,value
2018-12-25T00:01:40.923Z,12.70
2018-12-25T00:04:46.823Z,11.80
2018-12-25T00:07:52.696Z,10.00
2018-12-25T00:10:58.773Z,10.47
2018-12-25T00:14:06.177Z,11.23
2018-12-25T00:17:12.217Z,10.70
2018-12-25T00:20:18.104Z,10.10
2018-12-25T00:23:23.989Z,9.00
2018-12-25T00:26:29.845Z,8.53
2018-12-25T00:29:35.722Z,11.37
2018-12-25T00:32:41.775Z,8.57
2018-12-25T00:35:47.653Z,8.53
2018-12-25T00:38:53.590Z,8.87
2018-12-25T00:41:59.569Z,8.57
2018-12-25T00:45:05.587Z,8.77
2018-12-25T00:48:11.535Z,9.30
2018-12-25T00:51:17.408Z,7.20
2018-12-25T00:54:23.310Z,8.80
2018-12-25T00:57:29.193Z,8.57
2018-12-25T01:00:35.112Z,8.17
2018-12-25T01:03:40.999Z,12.43
2018-12-25T01:06:46.999Z,11.17
2018-12-25T01:09:52.845Z,10.23
2018-12-25T01:12:58.749Z,9.53
2018-12-25T01:16:07.010Z,9.10
2018-12-25T01:19:12.863Z,8.13
2018-12-25T01:22:18.764Z,8.47
2018-12-25T01:25:24.608Z,5.50
2018-12-25T01:28:30.670Z,5.67
2018-12-25T01:31:36.637Z,6.93
2018-12-25T01:34:42.506Z,6.47
2018-12-25T01:37:48.346Z,7.30
2018-12-25T01:40:54.241Z,7.07
2018-12-25T01:44:00.086Z,8.40
2018-12-25T01:47:05.982Z,8.27
2018-12-25T01:50:11.889Z,7.97
2018-12-25T01:53:17.830Z,7.57
2018-12-25T01:56:23.751Z,7.17
2018-12-25T01:59:29.667Z,10.27
2018-12-25T02:02:35.609Z,6.33
2018-12-25T02:05:44.509Z,9.93
2018-12-25T02:08:50.342Z,9.83
2018-12-25T02:11:56.275Z,10.83
2018-12-25T02:15:06.124Z,7.90
2018-12-25T02:18:12.046Z,8.67
2018-12-25T02:21:17.971Z,5.93
2018-12-25T02:24:23.757Z,6.93
2018-12-25T02:27:29.643Z,6.90
2018-12-25T02:30:35.508Z,7.50
2018-12-25T02:33:41.500Z,7.60
2018-12-25T02:36:47.348Z,7.57
2018-12-25T02:39:53.364Z,8.80
2018-12-25T02:42:59.361Z,6.43
2018-12-25T02:46:05.291Z,7.57
2018-12-25T02:49:11.153Z,5.93
2018-12-25T02:52:17.135Z,7.13
2018-12-25T02:55:22.953Z,6.57
2018-12-25T02:58:28.892Z,6.53
2018-12-25T03:01:34.860Z,6.10
2018-12-25T03:04:40.750Z,8.57
2018-12-25T03:07:46.669Z,6.03
2018-12-25T03:10:52.637Z,7.13
2018-12-25T03:13:58.472Z,6.57
2018-12-25T03:17:04.299Z,9.60
2018-12-25T03:20:10.242Z,8.67
2018-12-25T03:23:16.232Z,9.27
2018-12-25T03:26:22.200Z,9.33
2018-12-25T03:29:28.182Z,9.17
2018-12-25T03:32:34.076Z,9.63
2018-12-25T03:35:39.935Z,11.60
2018-12-25T03:38:45.829Z,10.03
2018-12-25T03:41:51.722Z,11.10
2018-12-25T03:44:57.780Z,8.53
2018-12-25T03:48:03.710Z,12.27
2018-12-25T03:51:09.759Z,9.57
2018-12-25T03:54:15.623Z,13.47
2018-12-25T03:57:21.484Z,13.90
2018-12-25T04:00:27.463Z,12.30
2018-12-25T04:03:33.431Z,12.43
2018-12-25T04:06:39.524Z,11.57
2018-12-25T04:09:45.324Z,13.30
2018-12-25T04:12:51.197Z,12.67
2018-12-25T04:15:57.020Z,12.00
2018-12-25T04:19:02.906Z,13.90
2018-12-25T04:22:08.770Z,9.43
2018-12-25T04:25:14.682Z,7.97
2018-12-25T04:28:20.637Z,8.63
2018-12-25T04:31:26.619Z,6.93
2018-12-25T04:34:32.536Z,7.63
2018-12-25T04:37:38.412Z,9.77
2018-12-25T04:40:44.285Z,11.43
2018-12-25T04:43:50.295Z,10.60
2018-12-25T04:46:56.199Z,12.27
2018-12-25T04:50:02.119Z,10.77
2018-12-25T04:53:08.037Z,9.97
2018-12-25T04:56:13.880Z,9.83
2018-12-25T04:59:19.742Z,9.27
2018-12-25T05:02:25.603Z,8.53
2018-12-25T05:05:31.577Z,7.40
2018-12-25T05:08:37.667Z,9.83
2018-12-25T05:11:43.581Z,7.60
2018-12-25T05:14:49.496Z,8.77
2018-12-25T05:17:55.462Z,7.67
2018-12-25T05:21:01.466Z,10.13
2018-12-25T05:24:07.356Z,9.23
2018-12-25T05:27:13.210Z,8.50
2018-12-25T05:30:19.071Z,8.93
2018-12-25T05:33:25.080Z,11.00
2018-12-25T05:36:31.219Z,9.40
2018-12-25T05:39:37.103Z,9.33
2018-12-25T05:42:42.965Z,9.53
2018-12-25T05:45:48.885Z,10.63
2018-12-25T05:48:54.862Z,8.37
2018-12-25T05:52:00.759Z,8.13
2018-12-25T05:55:06.749Z,7.90
2018-12-25T05:58:12.636Z,8.77
2018-12-25T06:01:18.442Z,8.10
2018-12-25T06:04:24.255Z,9.17
2018-12-25T06:07:30.220Z,8.17
2018-12-25T06:10:36.231Z,8.40
2018-12-25T06:13:43.188Z,10.93
2018-12-25T06:16:49.033Z,7.63
2018-12-25T06:19:54.856Z,9.40
2018-12-25T06:23:00.886Z,7.30
2018-12-25T06:26:06.936Z,10.53
2018-12-25T06:29:12.894Z,10.47
2018-12-25T06:32:18.712Z,9.30
2018-12-25T06:35:24.634Z,8.77
2018-12-25T06:38:30.563Z,9.93
2018-12-25T06:41:36.452Z,7.90
2018-12-25T06:44:42.353Z,7.37
2018-12-25T06:47:48.490Z,8.00
2018-12-25T06:50:54.375Z,6.43
2018-12-25T06:54:00.331Z,7.37
2018-12-25T06:57:06.348Z,7.20
2018-12-25T07:00:13.326Z,8.10
2018-12-25T07:03:19.355Z,10.03
2018-12-25T07:06:25.525Z,8.13
2018-12-25T07:09:31.416Z,8.93
2018-12-25T07:12:56.493Z,11.43
2018-12-25T07:16:02.335Z,9.83
2018-12-25T07:19:08.275Z,9.60
2018-12-25T07:22:14.299Z,7.87
2018-12-25T07:25:20.168Z,7.83
2018-12-25T07:28:26.029Z,12.37
2018-12-25T07:31:31.930Z,11.67
2018-12-25T07:34:37.970Z,22.07
2018-12-25T07:37:43.984Z,14.77
2018-12-25T07:40:49.952Z,14.33
2018-12-25T07:43:55.932Z,10.97
2018-12-25T07:47:01.806Z,12.43
2018-12-25T07:50:08.373Z,10.97
2018-12-25T07:53:14.397Z,9.40
2018-12-25T07:56:20.360Z,16.70
2018-12-25T07:59:26.197Z,15.37
2018-12-25T08:02:32.251Z,11.60
2018-12-25T08:05:38.237Z,9.50
2018-12-25T08:08:44.260Z,13.67
2018-12-25T08:11:50.131Z,13.10
2018-12-25T08:14:56.101Z,15.70
2018-12-25T08:18:02.291Z,20.03
2018-12-25T08:21:08.206Z,12.93
2018-12-25T08:24:14.183Z,11.97
2018-12-25T08:27:20.133Z,15.07
2018-12-25T08:30:26.251Z,17.40
2018-12-25T08:33:32.180Z,17.10
2018-12-25T08:36:41.034Z,12.27
2018-12-25T08:39:46.982Z,12.37
2018-12-25T08:42:53.107Z,17.00
2018-12-25T08:45:59.213Z,18.07
2018-12-25T08:49:05.145Z,18.50
2018-12-25T08:52:11.322Z,16.80
2018-12-25T08:55:17.312Z,19.87
2018-12-25T08:58:23.390Z,25.00
2018-12-25T09:01:29.260Z,35.60
2018-12-25T09:04:35.252Z,30.27
2018-12-25T09:07:41.151Z,30.53
2018-12-25T09:10:50.195Z,28.97
2018-12-25T09:13:56.175Z,24.63
2018-12-25T09:17:02.135Z,19.87
2018-12-25T09:20:08.170Z,15.23
2018-12-25T09:23:14.199Z,13.30
2018-12-25T09:26:20.370Z,14.17
2018-12-25T09:29:26.388Z,13.77
2018-12-25T09:32:32.402Z,29.63
2018-12-25T09:35:38.471Z,37.53
2018-12-25T09:38:44.392Z,26.73
2018-12-25T09:41:50.478Z,23.53
2018-12-25T09:44:56.633Z,20.73
2018-12-25T09:48:02.575Z,22.20
2018-12-25T09:51:08.652Z,20.30
2018-12-25T09:54:14.793Z,21.07
2018-12-25T09:57:20.865Z,26.47
2018-12-25T10:00:26.933Z,29.67
2018-12-25T10:03:32.941Z,21.20
2018-12-25T10:06:38.890Z,15.90
2018-12-25T10:09:45.238Z,21.17
2018-12-25T10:12:51.118Z,20.13
2018-12-25T10:15:57.290Z,13.67
2018-12-25T10:19:03.348Z,27.10
2018-12-25T10:22:09.272Z,34.17
2018-12-25T10:25:15.246Z,48.73
2018-12-25T10:28:21.215Z,37.03
2018-12-25T10:31:27.265Z,30.33
2018-12-25T10:34:33.298Z,23.17
2018-12-25T10:37:41.607Z,20.27
2018-12-25T10:40:47.579Z,19.83
2018-12-25T10:43:53.528Z,15.93
2018-12-25T10:46:59.447Z,13.50
2018-12-25T10:50:05.973Z,9.97
2018-12-25T10:53:12.630Z,6.67
2018-12-25T10:56:37.594Z,7.10
2018-12-25T10:59:43.473Z,6.03
2018-12-25T11:02:49.354Z,4.70
2018-12-25T11:05:55.398Z,5.40
2018-12-25T11:09:01.271Z,14.80
2018-12-25T11:12:07.280Z,6.40
2018-12-25T11:15:13.173Z,5.40
2018-12-25T11:18:19.250Z,6.17
2018-12-25T11:21:25.196Z,4.97
2018-12-25T11:24:31.097Z,4.73
2018-12-25T11:27:36.921Z,4.67
2018-12-25T11:30:42.899Z,6.30
2018-12-25T11:33:48.835Z,7.57
2018-12-25T11:36:57.534Z,6.17
2018-12-25T11:40:03.418Z,6.50
2018-12-25T11:43:09.422Z,4.53
2018-12-25T11:46:15.535Z,4.30
2018-12-25T11:49:21.426Z,4.60
2018-12-25T11:52:28.444Z,6.87
2018-12-25T11:55:34.781Z,4.67
2018-12-25T11:58:40.656Z,4.27
2018-12-25T12:01:46.503Z,6.63
2018-12-25T12:04:52.421Z,5.80
2018-12-25T12:07:58.483Z,5.07
2018-12-25T12:11:07.551Z,5.03
2018-12-25T12:14:13.440Z,5.67
2018-12-25T12:17:19.615Z,4.20
2018-12-25T12:20:25.563Z,5.70
2018-12-25T12:23:31.578Z,4.47
2018-12-25T12:26:40.499Z,4.40
2018-12-25T12:29:46.538Z,3.60
2018-12-25T12:32:52.647Z,4.73
2018-12-25T12:35:58.908Z,9.00
2018-12-25T12:39:06.820Z,4.60
2018-12-25T12:42:15.739Z,5.67
2018-12-25T12:45:21.663Z,5.30
2018-12-25T12:48:27.478Z,4.50
2018-12-25T12:51:33.405Z,4.37
2018-12-25T12:54:39.300Z,4.43
2018-12-25T12:57:45.301Z,4.97
2018-12-25T13:00:51.218Z,4.77
2018-12-25T13:03:57.107Z,7.17
2018-12-25T13:07:02.987Z,4.80
2018-12-25T13:10:09.733Z,7.63
2018-12-25T13:13:15.610Z,19.83
2018-12-25T13:16:21.610Z,16.40
2018-12-25T13:19:27.519Z,6.87
2018-12-25T13:22:33.329Z,5.17
2018-12-25T13:25:39.583Z,6.30
2018-12-25T13:28:45.446Z,5.90
2018-12-25T13:31:51.392Z,7.13
2018-12-25T13:34:57.670Z,5.97
2018-12-25T13:38:03.748Z,5.90
2018-12-25T13:41:09.638Z,5.50
2018-12-25T13:44:15.671Z,5.63
2018-12-25T13:47:21.691Z,31.37
2018-12-25T13:50:27.595Z,6.83
2018-12-25T13:53:33.528Z,24.63
2018-12-25T13:56:39.471Z,7.40
2018-12-25T13:59:45.383Z,7.07
2018-12-25T14:02:51.240Z,7.70
2018-12-25T14:05:57.080Z,6.23
2018-12-25T14:09:03.585Z,9.87
2018-12-25T14:12:09.497Z,5.30
2018-12-25T14:15:15.518Z,10.43
2018-12-25T14:18:21.390Z,6.63
2018-12-25T14:21:27.286Z,5.50
2018-12-25T14:24:33.182Z,6.03
2018-12-25T14:27:39.064Z,6.67
2018-12-25T14:30:44.982Z,8.43
2018-12-25T14:33:50.972Z,7.70
2018-12-25T14:36:56.835Z,6.80
2018-12-25T14:40:02.776Z,6.23
2018-12-25T14:43:08.684Z,6.70
2018-12-25T14:46:14.651Z,8.33
2018-12-25T14:49:20.757Z,7.47
2018-12-25T14:52:26.635Z,9.33
2018-12-25T14:55:32.488Z,7.50
2018-12-25T14:58:38.388Z,8.43
2018-12-25T15:01:44.353Z,7.13
2018-12-25T15:04:50.276Z,7.30
2018-12-25T15:07:56.140Z,9.13
2018-12-25T15:11:02.042Z,9.53
2018-12-25T15:14:07.799Z,10.97
2018-12-25T15:17:13.666Z,8.60
2018-12-25T15:20:19.589Z,8.03
2018-12-25T15:23:28.306Z,6.27
2018-12-25T15:26:33.230Z,8.63
2018-12-25T15:29:39.080Z,8.87
2018-12-25T15:32:44.974Z,7.57
2018-12-25T15:35:50.851Z,9.10
2018-12-25T15:38:56.792Z,9.00
2018-12-25T15:42:02.689Z,10.00
2018-12-25T15:45:09.751Z,8.20
2018-12-25T15:48:15.707Z,6.90
2018-12-25T15:51:21.685Z,6.80
2018-12-25T15:54:27.635Z,6.90
2018-12-25T15:57:33.574Z,7.13
2018-12-25T16:00:39.501Z,6.50
2018-12-25T16:03:45.409Z,7.43
2018-12-25T16:06:51.404Z,9.00
2018-12-25T16:09:57.309Z,8.33
2018-12-25T16:13:03.318Z,9.70
2018-12-25T16:16:09.280Z,9.57
2018-12-25T16:19:15.267Z,10.33
2018-12-25T16:22:21.133Z,8.80
2018-12-25T16:25:27.064Z,11.80
2018-12-25T16:28:33.013Z,9.13
2018-12-25T16:31:38.882Z,11.20
2018-12-25T16:34:44.877Z,9.70
2018-12-25T16:37:50.741Z,12.23
2018-12-25T16:40:56.716Z,10.97
2018-12-25T16:44:02.592Z,11.23
2018-12-25T16:47:08.620Z,10.10
2018-12-25T16:50:14.537Z,8.70
2018-12-25T16:53:20.436Z,9.73
2018-12-25T16:56:26.406Z,10.27
2018-12-25T16:59:32.513Z,9.67
2018-12-25T17:02:38.380Z,10.33
2018-12-25T17:05:44.391Z,10.80
2018-12-25T17:08:50.343Z,8.00
2018-12-25T17:11:56.314Z,8.77
2018-12-25T17:15:02.231Z,11.00
2018-12-25T17:18:09.581Z,10.93
2018-12-25T17:21:15.614Z,10.70
2018-12-25T17:24:21.542Z,10.97
2018-12-25T17:27:27.360Z,10.00
2018-12-25T17:30:33.277Z,10.87
2018-12-25T17:33:39.257Z,12.07
2018-12-25T17:36:45.131Z,11.57
2018-12-25T17:39:51.085Z,11.77
2018-12-25T17:42:56.838Z,9.53
2018-12-25T17:46:02.724Z,9.47
2018-12-25T17:49:08.547Z,11.23
2018-12-25T17:52:14.523Z,11.70
2018-12-25T17:55:20.426Z,29.10
2018-12-25T17:58:26.380Z,29.03
2018-12-25T18:01:32.307Z,19.80
2018-12-25T18:04:38.329Z,16.10
2018-12-25T18:07:44.255Z,17.57
2018-12-25T18:10:50.235Z,14.60
2018-12-25T18:13:56.161Z,17.73
2018-12-25T18:17:02.069Z,16.43
2018-12-25T18:20:08.312Z,19.60
2018-12-25T18:23:14.283Z,16.80
2018-12-25T18:26:20.257Z,13.77
2018-12-25T18:29:26.136Z,14.43
2018-12-25T18:32:32.015Z,12.70
2018-12-25T18:35:38.086Z,11.70
2018-12-25T18:38:44.206Z,11.27
2018-12-25T18:41:50.054Z,6.77
2018-12-25T18:44:56.036Z,7.07
2018-12-25T18:48:01.938Z,8.00
2018-12-25T18:51:08.002Z,8.33
2018-12-25T18:54:15.611Z,7.30
2018-12-25T18:57:22.074Z,8.23
2018-12-25T19:00:28.230Z,6.13
2018-12-25T19:03:34.118Z,6.83
2018-12-25T19:06:40.054Z,7.67
2018-12-25T19:09:46.027Z,8.83
2018-12-25T19:12:52.385Z,9.57
2018-12-25T19:16:03.462Z,8.67
2018-12-25T19:19:11.424Z,9.77
2018-12-25T19:22:17.481Z,11.10
2018-12-25T19:25:23.505Z,17.77
2018-12-25T19:28:29.485Z,9.40
2018-12-25T19:31:38.447Z,7.13
2018-12-25T19:34:44.379Z,9.57
2018-12-25T19:37:50.340Z,7.93
2018-12-25T19:40:56.404Z,9.73
2018-12-25T19:44:02.772Z,14.03
2018-12-25T19:47:08.747Z,19.83
2018-12-25T19:50:14.662Z,24.33
2018-12-25T19:53:20.694Z,24.27
2018-12-25T19:56:26.635Z,35.37
2018-12-25T19:59:32.556Z,28.10
2018-12-25T20:02:39.040Z,36.50
2018-12-25T20:06:44.113Z,27.23
2018-12-25T20:11:06.361Z,26.93
2018-12-25T20:15:15.183Z,24.50
2018-12-25T20:19:08.038Z,27.00
2018-12-25T20:22:58.526Z,22.20
2018-12-25T20:26:48.387Z,24.80
2018-12-25T20:31:24.735Z,21.90
2018-12-25T20:35:32.781Z,20.37
2018-12-25T20:39:52.882Z,17.87
2018-12-25T20:44:21.108Z,18.83
2018-12-25T20:48:22.722Z,13.53
2018-12-25T20:52:39.323Z,14.07
2018-12-25T20:56:39.435Z,9.13
2018-12-25T21:00:38.932Z,8.63
2018-12-25T21:04:32.603Z,10.60
2018-12-25T21:08:39.069Z,8.80
2018-12-25T21:12:49.605Z,13.00
2018-12-25T21:17:06.141Z,15.40
2018-12-25T21:21:03.785Z,9.43
2018-12-25T21:25:09.680Z,11.03
2018-12-25T21:28:08.013Z,10.90
2018-12-25T21:31:14.266Z,19.77
2018-12-25T21:34:20.507Z,18.93
2018-12-25T21:37:26.485Z,26.03
2018-12-25T21:40:32.792Z,24.77
2018-12-25T21:43:38.803Z,21.47
2018-12-25T21:46:44.776Z,17.97
2018-12-25T21:49:52.487Z,19.40
2018-12-25T21:52:59.073Z,19.87
2018-12-25T21:56:05.403Z,19.70
2018-12-25T21:59:12.073Z,17.30
2018-12-25T22:02:18.483Z,15.60
2018-12-25T22:05:24.713Z,14.60
2018-12-25T22:08:30.599Z,16.87
2018-12-25T22:11:36.899Z,14.50
2018-12-25T22:14:42.871Z,13.90
2018-12-25T22:17:48.853Z,13.10
2018-12-25T22:20:55.105Z,13.40
2018-12-25T22:24:01.053Z,12.87
2018-12-25T22:27:07.193Z,11.63
2018-12-25T22:30:13.380Z,12.63
2018-12-25T22:33:19.445Z,11.83
2018-12-25T22:36:25.461Z,16.97
2018-12-25T22:39:31.283Z,16.03
2018-12-25T22:42:37.132Z,16.43
2018-12-25T22:45:43.006Z,18.23
2018-12-25T22:48:49.181Z,21.83
2018-12-25T22:51:55.162Z,21.87
2018-12-25T22:55:01.117Z,21.63
2018-12-25T22:58:07.026Z,19.37
2018-12-25T23:01:12.963Z,20.50
2018-12-25T23:04:18.893Z,21.43
2018-12-25T23:07:24.903Z,22.37
2018-12-25T23:10:30.846Z,16.23
2018-12-25T23:13:36.736Z,17.03
2018-12-25T23:16:42.798Z,16.47
2018-12-25T23:19:48.716Z,16.47
2018-12-25T23:22:54.697Z,17.70
2018-12-25T23:26:00.730Z,17.27
2018-12-25T23:29:07.047Z,14.07
2018-12-25T23:32:13.119Z,17.47
2018-12-25T23:35:18.974Z,16.40
2018-12-25T23:38:24.827Z,14.90
2018-12-25T23:41:30.906Z,14.70
2018-12-25T23:44:36.877Z,13.67
2018-12-25T23:47:42.785Z,18.17
2018-12-25T23:50:48.805Z,17.03
2018-12-25T23:53:54.744Z,17.73
2018-12-25T23:57:00.618Z,20.03
